createdAt,value
2016-08-24T00:00:04.698Z,17.96
2016-08-24T00:00:49.802Z,17.93
2016-08-24T00:02:04.752Z,18
2016-08-24T00:03:04.773Z,17.95
2016-08-24T00:03:49.879Z,18.05
2016-08-24T00:04:49.905Z,18.11
2016-08-24T00:05:49.925Z,18.14
2016-08-24T00:06:49.957Z,18.08
2016-08-24T00:07:49.980Z,18.08
2016-08-24T00:08:50.001Z,18.05
2016-08-24T00:09:50.039Z,18.18
2016-08-24T00:10:50.060Z,18.07
2016-08-24T00:11:50.086Z,18.1
2016-08-24T00:12:50.119Z,18.1
2016-08-24T00:14:05.063Z,18.03
2016-08-24T00:15:05.090Z,18.07
2016-08-24T00:15:50.222Z,18.07
2016-08-24T00:17:05.142Z,18.05
2016-08-24T00:18:50.263Z,17.97
2016-08-24T00:19:50.290Z,17.97
2016-08-24T00:20:50.321Z,18.02
2016-08-24T00:21:50.345Z,18.05
2016-08-24T00:22:50.376Z,17.92
2016-08-24T00:23:50.399Z,18.03
2016-08-24T00:25:05.353Z,17.99
2016-08-24T00:25:50.451Z,18.05
2016-08-24T00:26:50.476Z,18.11
2016-08-24T00:27:50.499Z,18.02
2016-08-24T00:28:50.525Z,18.07
2016-08-24T00:29:50.554Z,18.11
2016-08-24T00:31:50.600Z,18.1
2016-08-24T00:32:50.632Z,18.03
2016-08-24T00:33:50.660Z,18.02
2016-08-24T00:34:50.682Z,17.93
2016-08-24T00:35:50.717Z,17.99
2016-08-24T00:36:50.735Z,18
2016-08-24T00:37:50.760Z,17.96
2016-08-24T00:38:50.787Z,18.03
2016-08-24T00:39:50.825Z,17.93
2016-08-24T00:40:50.842Z,17.87
2016-08-24T00:41:50.877Z,17.84
2016-08-24T00:42:50.888Z,17.86
2016-08-24T00:43:50.917Z,17.86
2016-08-24T00:45:50.972Z,17.82
2016-08-24T00:46:50.995Z,17.92
2016-08-24T00:47:51.022Z,17.92
2016-08-24T00:49:05.969Z,17.92
2016-08-24T00:49:51.076Z,18
2016-08-24T00:50:51.100Z,18
2016-08-24T00:52:06.063Z,17.95
2016-08-24T00:52:51.155Z,17.87
2016-08-24T00:53:51.178Z,17.95
2016-08-24T00:54:51.255Z,17.89
2016-08-24T00:55:51.227Z,17.92
2016-08-24T00:56:51.257Z,17.93
2016-08-24T00:57:51.286Z,17.82
2016-08-24T00:59:06.239Z,17.9
2016-08-24T00:59:51.337Z,17.79
2016-08-24T01:00:51.360Z,17.93
2016-08-24T01:01:51.387Z,17.95
2016-08-24T01:04:06.362Z,17.92
2016-08-24T01:05:06.389Z,17.92
2016-08-24T01:05:51.494Z,17.96
2016-08-24T01:06:51.522Z,17.9
2016-08-24T01:07:51.541Z,17.89
2016-08-24T01:08:51.569Z,18
2016-08-24T01:09:52.291Z,17.96
2016-08-24T01:10:51.620Z,17.95
2016-08-24T01:11:51.648Z,18.03
2016-08-24T01:12:51.678Z,18.1
2016-08-24T01:14:51.726Z,18.12
2016-08-24T01:15:51.745Z,18.12
2016-08-24T01:16:51.788Z,18.1
2016-08-24T01:17:51.804Z,18.1
2016-08-24T01:18:51.826Z,18.08
2016-08-24T01:21:06.802Z,18.07
2016-08-24T01:21:51.919Z,18.05
2016-08-24T01:22:51.940Z,18.07
2016-08-24T01:23:51.963Z,18.08
2016-08-24T01:25:52.026Z,18.1
2016-08-24T01:26:52.035Z,18.07
2016-08-24T01:27:52.065Z,18.11
2016-08-24T01:28:52.093Z,18.08
2016-08-24T01:29:52.114Z,18.25
2016-08-24T01:30:52.836Z,18.17
2016-08-24T01:31:52.170Z,18.18
2016-08-24T01:32:52.195Z,18.14
2016-08-24T01:33:52.221Z,18.26
2016-08-24T01:34:52.248Z,18.18
2016-08-24T01:35:52.269Z,18.26
2016-08-24T01:37:07.226Z,18.32
2016-08-24T01:37:52.327Z,18.29
2016-08-24T01:38:52.348Z,18.3
2016-08-24T01:39:52.380Z,18.41
2016-08-24T01:40:52.403Z,18.3
2016-08-24T01:41:52.429Z,18.32
2016-08-24T01:42:52.449Z,18.27
2016-08-24T01:43:52.475Z,18.33
2016-08-24T01:44:52.526Z,18.25
2016-08-24T01:45:52.533Z,18.21
2016-08-24T01:46:52.560Z,18.27
2016-08-24T01:47:52.595Z,18.21
2016-08-24T01:48:52.611Z,18.3
2016-08-24T01:49:52.637Z,18.26
2016-08-24T01:50:52.661Z,18.42
2016-08-24T01:52:07.611Z,18.35
2016-08-24T01:53:52.739Z,18.39
2016-08-24T01:54:52.765Z,18.35
2016-08-24T01:55:52.790Z,18.35
2016-08-24T01:56:52.814Z,18.23
2016-08-24T01:57:52.839Z,18.23
2016-08-24T01:58:52.869Z,18.21
2016-08-24T01:59:52.899Z,18.29
2016-08-24T02:00:52.933Z,18.26
2016-08-24T02:01:52.948Z,18.27
2016-08-24T02:02:52.976Z,18.21
2016-08-24T02:03:53.005Z,18.25
2016-08-24T02:04:53.029Z,18.27
2016-08-24T02:06:07.978Z,18.33
2016-08-24T02:06:53.088Z,18.23
2016-08-24T02:07:53.104Z,18.23
2016-08-24T02:08:53.126Z,18.14
2016-08-24T02:09:53.161Z,18.12
2016-08-24T02:10:53.183Z,18.1
2016-08-24T02:11:53.205Z,18.1
2016-08-24T02:12:53.235Z,17.93
2016-08-24T02:13:53.263Z,17.95
2016-08-24T02:14:53.281Z,17.89
2016-08-24T02:15:53.318Z,17.82
2016-08-24T02:16:53.346Z,17.81
2016-08-24T02:17:53.412Z,17.82
2016-08-24T02:18:53.410Z,17.77
2016-08-24T02:19:53.418Z,17.64
2016-08-24T02:21:53.464Z,17.72
2016-08-24T02:22:53.492Z,17.58
2016-08-24T02:24:08.440Z,17.54
2016-08-24T02:24:53.553Z,17.44
2016-08-24T02:25:53.572Z,17.41
2016-08-24T02:26:53.602Z,17.41
2016-08-24T02:27:53.620Z,17.43
2016-08-24T02:28:53.646Z,17.38
2016-08-24T02:29:53.673Z,17.38
2016-08-24T02:30:53.705Z,17.46
2016-08-24T02:31:53.726Z,17.34
2016-08-24T02:32:53.760Z,17.37
2016-08-24T02:33:53.782Z,17.38
2016-08-24T02:34:53.804Z,17.44
2016-08-24T02:35:53.826Z,17.38
2016-08-24T02:36:53.854Z,17.4
2016-08-24T02:37:53.897Z,17.43
2016-08-24T02:38:53.908Z,17.36
2016-08-24T02:40:08.858Z,17.28
2016-08-24T02:41:53.984Z,17.26
2016-08-24T02:42:54.012Z,17.22
2016-08-24T02:43:54.040Z,17.21
2016-08-24T02:44:54.070Z,17.3
2016-08-24T02:45:54.090Z,17.23
2016-08-24T02:46:54.124Z,17.26
2016-08-24T02:47:54.142Z,17.23
2016-08-24T02:48:54.173Z,17.26
2016-08-24T02:49:54.213Z,17.25
2016-08-24T02:50:54.221Z,17.23
2016-08-24T02:51:54.249Z,17.23
2016-08-24T02:53:09.200Z,17.25
2016-08-24T02:53:54.300Z,17.3
2016-08-24T02:55:09.295Z,17.22
2016-08-24T02:56:09.272Z,17.23
2016-08-24T02:56:54.377Z,17.3
2016-08-24T02:57:54.453Z,17.21
2016-08-24T02:58:54.429Z,17.23
2016-08-24T02:59:54.451Z,17.19
2016-08-24T03:00:54.478Z,17.16
2016-08-24T03:01:54.515Z,17.22
2016-08-24T03:02:54.531Z,17.25
2016-08-24T03:03:54.566Z,17.28
2016-08-24T03:04:55.279Z,17.26
2016-08-24T03:05:54.603Z,17.34
2016-08-24T03:06:54.637Z,17.33
2016-08-24T03:07:54.669Z,17.38
2016-08-24T03:08:54.681Z,17.38
2016-08-24T03:09:54.718Z,17.46
2016-08-24T03:10:54.739Z,17.31
2016-08-24T03:12:09.691Z,17.44
2016-08-24T03:12:54.789Z,17.3
2016-08-24T03:13:54.815Z,17.37
2016-08-24T03:14:54.850Z,17.44
2016-08-24T03:15:54.870Z,17.37
2016-08-24T03:16:54.895Z,17.54
2016-08-24T03:17:54.914Z,17.43
2016-08-24T03:18:55.003Z,17.4
2016-08-24T03:19:54.973Z,17.46
2016-08-24T03:20:54.992Z,17.46
2016-08-24T03:21:55.024Z,17.51
2016-08-24T03:22:55.053Z,17.52
2016-08-24T03:23:55.074Z,17.49
2016-08-24T03:24:55.106Z,17.49
2016-08-24T03:25:55.126Z,17.59
2016-08-24T03:27:10.078Z,17.62
2016-08-24T03:27:55.182Z,17.62
2016-08-24T03:28:55.207Z,17.63
2016-08-24T03:29:55.225Z,17.66
2016-08-24T03:30:55.259Z,17.62
2016-08-24T03:31:55.282Z,17.66
2016-08-24T03:32:55.305Z,17.7
2016-08-24T03:33:55.337Z,17.71
2016-08-24T03:34:55.358Z,17.68
2016-08-24T03:35:55.385Z,17.64
2016-08-24T03:37:10.338Z,17.68
2016-08-24T03:37:55.436Z,17.71
2016-08-24T03:38:56.163Z,17.75
2016-08-24T03:39:55.487Z,17.75
2016-08-24T03:40:55.514Z,17.74
2016-08-24T03:41:55.546Z,17.68
2016-08-24T03:42:55.563Z,17.64
2016-08-24T03:43:55.599Z,17.63
2016-08-24T03:44:55.621Z,17.66
2016-08-24T03:45:55.645Z,17.7
2016-08-24T03:46:55.672Z,17.68
2016-08-24T03:47:55.695Z,17.68
2016-08-24T03:48:55.728Z,17.74
2016-08-24T03:49:55.747Z,17.75
2016-08-24T03:50:55.775Z,17.79
2016-08-24T03:51:55.797Z,17.79
2016-08-24T03:53:55.855Z,17.74
2016-08-24T03:54:55.880Z,17.68
2016-08-24T03:55:55.901Z,17.7
2016-08-24T03:56:55.983Z,17.59
2016-08-24T03:57:55.952Z,17.66
2016-08-24T03:59:10.903Z,17.55
2016-08-24T04:00:10.925Z,17.56
2016-08-24T04:00:56.030Z,17.59
2016-08-24T04:01:56.059Z,17.54
2016-08-24T04:02:56.083Z,17.62
2016-08-24T04:03:56.108Z,17.58
2016-08-24T04:04:56.144Z,17.59
2016-08-24T04:05:56.162Z,17.59
2016-08-24T04:06:56.185Z,17.63
2016-08-24T04:07:56.216Z,17.68
2016-08-24T04:08:56.241Z,17.62
2016-08-24T04:09:56.261Z,17.59
2016-08-24T04:10:56.289Z,17.74
2016-08-24T04:12:56.348Z,17.64
2016-08-24T04:14:11.291Z,17.72
2016-08-24T04:15:11.315Z,17.75
2016-08-24T04:16:11.340Z,17.72
2016-08-24T04:16:56.445Z,17.72
2016-08-24T04:17:56.478Z,17.77
2016-08-24T04:18:56.548Z,17.87
2016-08-24T04:19:56.523Z,17.89
2016-08-24T04:20:56.567Z,17.93
2016-08-24T04:21:56.574Z,17.89
2016-08-24T04:23:56.626Z,17.93
2016-08-24T04:24:56.651Z,17.99
2016-08-24T04:25:56.685Z,18.03
2016-08-24T04:27:11.629Z,18
2016-08-24T04:27:56.732Z,17.93
2016-08-24T04:28:56.761Z,17.96
2016-08-24T04:30:11.706Z,18.08
2016-08-24T04:31:11.732Z,18.11
2016-08-24T04:32:11.757Z,18.11
2016-08-24T04:32:56.860Z,18.11
2016-08-24T04:33:56.881Z,18.12
2016-08-24T04:34:56.909Z,18.11
2016-08-24T04:35:56.930Z,18.11
2016-08-24T04:36:56.970Z,18.14
2016-08-24T04:37:56.985Z,18.1
2016-08-24T04:38:57.013Z,18.15
2016-08-24T04:39:57.039Z,18.17
2016-08-24T04:40:57.069Z,18.25
2016-08-24T04:43:57.143Z,18.23
2016-08-24T04:44:57.173Z,18.17
2016-08-24T04:45:57.199Z,18.26
2016-08-24T04:47:12.149Z,18.33
2016-08-24T04:47:57.247Z,18.27
2016-08-24T04:48:57.277Z,18.42
2016-08-24T04:49:57.301Z,18.36
2016-08-24T04:50:57.327Z,18.37
2016-08-24T04:51:57.351Z,18.36
2016-08-24T04:52:57.381Z,18.41
2016-08-24T04:53:57.404Z,18.42
2016-08-24T04:54:57.428Z,18.45
2016-08-24T04:55:57.452Z,18.37
2016-08-24T04:56:57.483Z,18.37
2016-08-24T04:59:12.462Z,18.44
2016-08-24T04:59:57.563Z,18.48
2016-08-24T05:00:57.589Z,18.5
2016-08-24T05:02:12.539Z,18.48
2016-08-24T05:02:57.651Z,18.57
2016-08-24T05:04:12.585Z,18.58
2016-08-24T05:04:57.690Z,18.6
2016-08-24T05:05:57.769Z,18.62
2016-08-24T05:06:57.746Z,18.65
2016-08-24T05:07:57.768Z,18.67
2016-08-24T05:08:57.797Z,18.66
2016-08-24T05:10:57.850Z,18.73
2016-08-24T05:11:57.879Z,18.76
2016-08-24T05:12:57.899Z,18.73
2016-08-24T05:13:57.926Z,18.67
2016-08-24T05:14:57.950Z,18.75
2016-08-24T05:15:57.974Z,18.82
2016-08-24T05:16:58.004Z,18.87
2016-08-24T05:17:58.041Z,18.84
2016-08-24T05:19:12.978Z,18.91
2016-08-24T05:19:58.080Z,18.84
2016-08-24T05:20:58.112Z,18.87
2016-08-24T05:21:58.133Z,18.95
2016-08-24T05:22:58.159Z,19.02
2016-08-24T05:23:58.188Z,19.08
2016-08-24T05:24:58.215Z,19.08
2016-08-24T05:25:58.286Z,19.16
2016-08-24T05:26:58.264Z,19.13
2016-08-24T05:27:58.290Z,19.14
2016-08-24T05:28:59.025Z,19.16
2016-08-24T05:30:58.375Z,19.19
2016-08-24T05:31:58.403Z,19.28
2016-08-24T05:33:28.268Z,19.36
2016-08-24T05:34:13.370Z,19.31
2016-08-24T05:34:58.473Z,19.33
2016-08-24T05:35:58.507Z,19.39
2016-08-24T05:36:58.528Z,19.29
2016-08-24T05:37:58.554Z,19.37
2016-08-24T05:38:58.580Z,19.37
2016-08-24T05:39:58.605Z,19.36
2016-08-24T05:40:58.627Z,19.44
2016-08-24T05:41:58.663Z,19.39
2016-08-24T05:42:58.683Z,19.51
2016-08-24T05:43:58.710Z,19.58
2016-08-24T05:44:58.732Z,19.56
2016-08-24T05:46:13.691Z,19.61
2016-08-24T05:47:13.715Z,19.58
2016-08-24T05:47:58.813Z,19.58
2016-08-24T05:49:13.765Z,19.78
2016-08-24T05:50:13.788Z,19.83
2016-08-24T05:50:58.900Z,19.86
2016-08-24T05:51:58.919Z,19.95
2016-08-24T05:52:58.946Z,19.92
2016-08-24T05:53:58.975Z,20.03
2016-08-24T05:54:58.998Z,19.94
2016-08-24T05:55:59.028Z,20.01
2016-08-24T05:56:59.052Z,20.08
2016-08-24T05:57:59.079Z,20.13
2016-08-24T05:58:59.107Z,20.11
2016-08-24T06:01:14.086Z,20.2
2016-08-24T06:01:59.186Z,20.28
2016-08-24T06:02:59.205Z,20.43
2016-08-24T06:03:59.242Z,20.39
2016-08-24T06:05:14.189Z,20.57
2016-08-24T06:06:14.218Z,20.7
2016-08-24T06:06:59.322Z,20.74
2016-08-24T06:07:59.349Z,20.72
2016-08-24T06:09:00.068Z,20.82
2016-08-24T06:09:59.400Z,20.92
2016-08-24T06:10:59.451Z,20.92
2016-08-24T06:11:59.455Z,20.92
2016-08-24T06:12:59.474Z,20.91
2016-08-24T06:13:59.508Z,21.07
2016-08-24T06:14:59.535Z,21.16
2016-08-24T06:15:59.556Z,21.31
2016-08-24T06:16:59.583Z,21.25
2016-08-24T06:17:59.613Z,21.42
2016-08-24T06:18:59.639Z,21.5
2016-08-24T06:19:59.678Z,21.64
2016-08-24T06:20:59.697Z,21.72
2016-08-24T06:22:14.651Z,21.8
2016-08-24T06:22:59.764Z,21.75
2016-08-24T06:23:59.828Z,21.8
2016-08-24T06:24:59.801Z,21.83
2016-08-24T06:25:59.986Z,21.94
2016-08-24T06:26:59.860Z,22.17
2016-08-24T06:27:59.883Z,22.47
2016-08-24T06:28:59.920Z,22.46
2016-08-24T06:29:59.938Z,22.72
2016-08-24T06:30:59.974Z,22.86
2016-08-24T06:31:59.999Z,23
2016-08-24T06:33:00.026Z,23
2016-08-24T06:34:15.031Z,23.25
2016-08-24T06:35:00.081Z,23.32
2016-08-24T06:36:00.106Z,23.6
2016-08-24T06:37:15.064Z,23.78
2016-08-24T06:38:00.170Z,24.12
2016-08-24T06:39:00.203Z,24.43
2016-08-24T06:40:00.234Z,24.69
2016-08-24T06:41:00.260Z,25.02
2016-08-24T06:42:00.294Z,25.39
2016-08-24T06:43:00.321Z,25.6
2016-08-24T06:44:00.352Z,25.72
2016-08-24T06:45:00.372Z,26.05
2016-08-24T06:46:00.409Z,26.51
2016-08-24T06:47:00.438Z,26.91
2016-08-24T06:48:00.470Z,26.95
2016-08-24T06:49:00.503Z,27.31
2016-08-24T06:51:00.571Z,27.99
2016-08-24T06:52:00.606Z,28.29
2016-08-24T06:53:00.634Z,28.51
2016-08-24T06:54:00.678Z,28.74
2016-08-24T06:55:00.706Z,28.73
2016-08-24T06:56:00.741Z,29.18
2016-08-24T06:57:00.784Z,29.15
2016-08-24T06:58:00.803Z,29.51
2016-08-24T06:59:00.841Z,29.61
2016-08-24T07:00:00.875Z,29.71
2016-08-24T07:01:00.907Z,29.6
2016-08-24T07:03:00.980Z,30.02
2016-08-24T07:04:01.013Z,29.79
2016-08-24T07:06:01.080Z,29.63
2016-08-24T07:07:01.122Z,29.55
2016-08-24T07:08:01.164Z,29.64
2016-08-24T07:09:16.118Z,29.76
2016-08-24T07:10:01.224Z,29.7
2016-08-24T07:11:01.259Z,29.92
2016-08-24T07:12:01.301Z,30.13
2016-08-24T07:13:01.329Z,30.35
2016-08-24T07:14:01.369Z,30.46
2016-08-24T07:16:01.437Z,30.94
2016-08-24T07:17:01.477Z,30.76
2016-08-24T07:18:01.516Z,30.47
2016-08-24T07:19:01.548Z,30.83
2016-08-24T07:20:01.582Z,30.7
2016-08-24T07:21:01.635Z,30.84
2016-08-24T07:22:16.582Z,30.61
2016-08-24T07:23:01.686Z,30.73
2016-08-24T07:24:01.729Z,30.67
2016-08-24T07:25:16.686Z,30.75
2016-08-24T07:26:01.799Z,31.16
2016-08-24T07:27:01.889Z,31.41
2016-08-24T07:28:01.876Z,31.61
2016-08-24T07:29:01.905Z,31.73
2016-08-24T07:30:01.957Z,31.57
2016-08-24T07:31:01.981Z,31.61
2016-08-24T07:32:02.013Z,31.75
2016-08-24T07:33:02.106Z,31.75
2016-08-24T07:34:02.087Z,31.72
2016-08-24T07:35:02.127Z,31.95
2016-08-24T07:36:02.161Z,31.84
2016-08-24T07:37:02.199Z,31.78
2016-08-24T07:38:02.232Z,31.73
2016-08-24T07:39:02.271Z,31.91
2016-08-24T07:40:02.309Z,32.11
2016-08-24T07:41:17.267Z,32.11
2016-08-24T07:42:02.386Z,32.07
2016-08-24T07:43:02.419Z,31.73
2016-08-24T07:44:02.458Z,31.62
2016-08-24T07:45:03.188Z,31.96
2016-08-24T07:46:02.527Z,31.91
2016-08-24T07:47:02.567Z,31.62
2016-08-24T07:48:02.601Z,31.88
2016-08-24T07:49:02.634Z,32.13
2016-08-24T07:50:02.677Z,32.07
2016-08-24T07:51:02.705Z,32.11
2016-08-24T07:52:02.753Z,32.48
2016-08-24T07:53:02.779Z,32.82
2016-08-24T07:54:02.818Z,32.77
2016-08-24T07:55:02.854Z,32.6
2016-08-24T07:56:02.894Z,32.25
2016-08-24T07:57:17.859Z,32.67
2016-08-24T07:58:02.964Z,33.01
2016-08-24T07:59:03.003Z,33.31
2016-08-24T08:00:03.045Z,33.18
2016-08-24T08:01:03.084Z,33.49
2016-08-24T08:02:03.115Z,33.65
2016-08-24T08:03:03.148Z,33.66
2016-08-24T08:04:03.185Z,33.59
2016-08-24T08:05:03.224Z,33.34
2016-08-24T08:06:03.260Z,33.32
2016-08-24T08:07:03.309Z,33.54
2016-08-24T08:08:03.331Z,33.76
2016-08-24T08:09:03.374Z,33.47
2016-08-24T08:10:03.423Z,33.19
2016-08-24T08:11:03.450Z,33.18
2016-08-24T08:12:18.412Z,33.41
2016-08-24T08:13:18.443Z,33.71
2016-08-24T08:14:03.554Z,33.71
2016-08-24T08:15:03.599Z,33.75
2016-08-24T08:16:03.630Z,33.26
2016-08-24T08:17:03.665Z,33.45
2016-08-24T08:18:04.422Z,33.32
2016-08-24T08:19:03.743Z,33.45
2016-08-24T08:20:03.775Z,33.51
2016-08-24T08:22:03.852Z,33.41
2016-08-24T08:23:03.885Z,33.54
2016-08-24T08:24:03.932Z,33
2016-08-24T08:25:03.962Z,33.23
2016-08-24T08:26:03.992Z,33.44
2016-08-24T08:27:04.032Z,33.49
2016-08-24T08:28:04.120Z,33.31
2016-08-24T08:29:04.098Z,33.28
2016-08-24T08:30:04.147Z,33.31
2016-08-24T08:31:04.179Z,32.96
2016-08-24T08:32:04.210Z,32.99
2016-08-24T08:33:04.254Z,33.28
2016-08-24T08:34:04.292Z,33.07
2016-08-24T08:35:04.326Z,32.74
2016-08-24T08:36:04.366Z,32.79
2016-08-24T08:37:04.402Z,32.81
2016-08-24T08:38:04.433Z,32.52
2016-08-24T08:39:19.402Z,32.5
2016-08-24T08:40:04.513Z,32.72
2016-08-24T08:41:19.472Z,32.67
2016-08-24T08:42:04.588Z,31.76
2016-08-24T08:43:04.621Z,31.2
2016-08-24T08:44:19.581Z,31.32
2016-08-24T08:45:04.692Z,31.58
2016-08-24T08:46:04.726Z,32.03
2016-08-24T08:47:04.760Z,31.86
2016-08-24T08:48:04.800Z,31.86
2016-08-24T08:49:04.839Z,31.54
2016-08-24T08:50:04.869Z,31.68
2016-08-24T08:51:04.919Z,31.91
2016-08-24T08:53:04.977Z,32.15
2016-08-24T08:55:05.051Z,32.72
2016-08-24T08:56:05.081Z,32.75
2016-08-24T08:57:20.049Z,33.15
2016-08-24T08:58:05.156Z,33.47
2016-08-24T08:59:05.892Z,33.26
2016-08-24T09:00:20.154Z,33.35
2016-08-24T09:01:05.260Z,33.31
2016-08-24T09:02:05.300Z,33.16
2016-08-24T09:03:05.337Z,32.96
2016-08-24T09:04:05.367Z,32.5
2016-08-24T09:05:05.406Z,32.72
2016-08-24T09:06:05.438Z,32.74
2016-08-24T09:07:05.484Z,32.87
2016-08-24T09:08:05.517Z,33.28
2016-08-24T09:09:05.547Z,33.84
2016-08-24T09:10:05.601Z,34.22
2016-08-24T09:11:05.617Z,34.46
2016-08-24T09:12:05.657Z,34.46
2016-08-24T09:13:05.695Z,34.72
2016-08-24T09:14:05.724Z,34.78
2016-08-24T09:15:06.460Z,34.7
2016-08-24T09:16:20.726Z,34.54
2016-08-24T09:17:05.840Z,34.52
2016-08-24T09:19:05.905Z,34.61
2016-08-24T09:20:05.948Z,34.28
2016-08-24T09:21:05.986Z,34.54
2016-08-24T09:22:06.703Z,34.46
2016-08-24T09:23:06.053Z,34.49
2016-08-24T09:24:06.782Z,33.6
2016-08-24T09:25:06.124Z,32.75
2016-08-24T09:26:06.159Z,31.95
2016-08-24T09:27:06.196Z,31.12
2016-08-24T09:28:06.279Z,30.76
2016-08-24T09:29:06.263Z,30.46
2016-08-24T09:30:06.305Z,30.27
2016-08-24T09:31:06.339Z,30.16
2016-08-24T09:32:21.295Z,30.69
2016-08-24T09:33:06.405Z,31.07
2016-08-24T09:34:06.444Z,31.31
2016-08-24T09:35:06.482Z,31.34
2016-08-24T09:36:06.526Z,31.53
2016-08-24T09:37:06.549Z,31.92
2016-08-24T09:38:06.575Z,31.88
2016-08-24T09:39:06.613Z,32.06
2016-08-24T09:40:06.656Z,32.04
2016-08-24T09:41:06.685Z,32.22
2016-08-24T09:42:06.726Z,32.22
2016-08-24T09:43:06.760Z,32.23
2016-08-24T09:44:06.793Z,32.45
2016-08-24T09:45:06.822Z,32.52
2016-08-24T09:46:21.787Z,32.81
2016-08-24T09:47:21.823Z,33.01
2016-08-24T09:48:06.932Z,33.18
2016-08-24T09:49:21.888Z,33.29
2016-08-24T09:51:07.040Z,33.39
2016-08-24T09:52:07.070Z,33.65
2016-08-24T09:53:07.109Z,33.61
2016-08-24T09:54:07.140Z,33.97
2016-08-24T09:56:07.208Z,34.27
2016-08-24T09:57:07.249Z,34.47
2016-08-24T09:58:07.280Z,34.24
2016-08-24T09:59:07.314Z,33.71
2016-08-24T10:00:08.051Z,33.6
2016-08-24T10:01:07.391Z,33.95
2016-08-24T10:02:07.431Z,33.69
2016-08-24T10:03:22.381Z,33.71
2016-08-24T10:04:07.496Z,33.73
2016-08-24T10:05:07.533Z,33.32
2016-08-24T10:06:07.563Z,33.01
2016-08-24T10:07:07.597Z,33.03
2016-08-24T10:08:07.627Z,32.88
2016-08-24T10:09:07.666Z,33.21
2016-08-24T10:10:07.704Z,33.49
2016-08-24T10:11:07.732Z,33.54
2016-08-24T10:12:07.775Z,33.15
2016-08-24T10:13:07.809Z,33.19
2016-08-24T10:15:07.929Z,33.53
2016-08-24T10:18:07.975Z,33.61
2016-08-24T10:19:22.938Z,33.37
2016-08-24T10:20:08.048Z,33.37
2016-08-24T10:21:08.273Z,32.89
2016-08-24T10:22:08.120Z,32.82
2016-08-24T10:23:08.155Z,32.78
2016-08-24T10:24:08.187Z,32.32
2016-08-24T10:25:08.220Z,32.22
2016-08-24T10:26:08.252Z,31.78
2016-08-24T10:27:08.293Z,31.78
2016-08-24T10:28:08.325Z,31.8
2016-08-24T10:29:08.363Z,31.62
2016-08-24T10:30:08.397Z,31.69
2016-08-24T10:31:08.427Z,31.57
2016-08-24T10:32:08.466Z,31.57
2016-08-24T10:33:08.499Z,31.35
2016-08-24T10:34:08.534Z,31.06
2016-08-24T10:35:23.497Z,30.95
2016-08-24T10:36:08.603Z,30.84
2016-08-24T10:37:23.561Z,30.45
2016-08-24T10:38:08.672Z,30.29
2016-08-24T10:39:09.059Z,30.02
2016-08-24T10:40:08.737Z,30.01
2016-08-24T10:41:08.774Z,30.08
2016-08-24T10:42:08.808Z,30.01
2016-08-24T10:43:08.840Z,30.02
2016-08-24T10:44:08.878Z,30.15
2016-08-24T10:45:08.919Z,30.29
2016-08-24T10:46:08.943Z,30.32
2016-08-24T10:47:08.980Z,30.2
2016-08-24T10:48:09.012Z,29.95
2016-08-24T10:49:09.049Z,30
2016-08-24T10:50:09.087Z,29.67
2016-08-24T10:51:24.044Z,29.57
2016-08-24T10:52:09.153Z,29.55
2016-08-24T10:53:09.184Z,29.57
2016-08-24T10:54:09.215Z,29.85
2016-08-24T10:55:09.257Z,29.95
2016-08-24T10:56:09.286Z,29.95
2016-08-24T10:57:09.318Z,29.97
2016-08-24T10:58:09.350Z,29.86
2016-08-24T10:59:09.392Z,30.1
2016-08-24T11:00:09.422Z,30.1
2016-08-24T11:01:09.457Z,30.15
2016-08-24T11:02:09.491Z,30.11
2016-08-24T11:03:24.450Z,30.24
2016-08-24T11:04:09.557Z,30.15
2016-08-24T11:05:09.588Z,30.29
2016-08-24T11:06:09.626Z,30.32
2016-08-24T11:07:24.582Z,30.26
2016-08-24T11:08:09.691Z,30.34
2016-08-24T11:09:09.718Z,30.34
2016-08-24T11:10:09.760Z,30.29
2016-08-24T11:11:09.788Z,30.13
2016-08-24T11:12:09.825Z,30
2016-08-24T11:13:09.856Z,29.76
2016-08-24T11:14:09.895Z,29.58
2016-08-24T11:15:09.979Z,29.37
2016-08-24T11:16:09.954Z,29.45
2016-08-24T11:17:09.983Z,29.46
2016-08-24T11:18:10.027Z,29.61
2016-08-24T11:19:10.051Z,29.92
2016-08-24T11:20:10.088Z,29.79
2016-08-24T11:21:10.124Z,29.6
2016-08-24T11:22:25.083Z,29.83
2016-08-24T11:23:10.190Z,29.68
2016-08-24T11:24:10.225Z,29.51
2016-08-24T11:25:10.254Z,29.48
2016-08-24T11:26:10.288Z,29.41
2016-08-24T11:27:10.318Z,29.46
2016-08-24T11:28:10.351Z,29.57
2016-08-24T11:29:10.390Z,29.53
2016-08-24T11:30:10.420Z,29.33
2016-08-24T11:31:10.449Z,29.39
2016-08-24T11:32:10.489Z,29.53
2016-08-24T11:33:10.512Z,29.57
2016-08-24T11:34:10.545Z,29.36
2016-08-24T11:35:25.507Z,29.26
2016-08-24T11:37:10.642Z,28.86
2016-08-24T11:38:10.687Z,28.74
2016-08-24T11:39:10.714Z,28.59
2016-08-24T11:40:10.742Z,28.71
2016-08-24T11:41:10.772Z,28.92
2016-08-24T11:42:10.809Z,29.04
2016-08-24T11:43:10.840Z,29
2016-08-24T11:44:10.870Z,29.28
2016-08-24T11:45:10.904Z,29.45
2016-08-24T11:46:10.932Z,29.57
2016-08-24T11:47:10.973Z,29.46
2016-08-24T11:48:11.001Z,29.41
2016-08-24T11:50:11.068Z,29.46
2016-08-24T11:51:26.028Z,29.55
2016-08-24T11:52:11.128Z,29.46
2016-08-24T11:53:11.166Z,29.41
2016-08-24T11:54:26.121Z,29.33
2016-08-24T11:55:11.233Z,29.45
2016-08-24T11:56:11.266Z,29.42
2016-08-24T11:57:11.290Z,29.36
2016-08-24T11:58:11.326Z,29.49
2016-08-24T11:59:11.359Z,29.53
2016-08-24T12:00:11.393Z,29.43
2016-08-24T12:01:11.425Z,29.48
2016-08-24T12:02:11.455Z,29.27
2016-08-24T12:03:11.487Z,29.26
2016-08-24T12:04:11.530Z,29.28
2016-08-24T12:05:11.556Z,29.48
2016-08-24T12:06:11.588Z,29.46
2016-08-24T12:07:11.623Z,29.58
2016-08-24T12:08:11.661Z,29.61
2016-08-24T12:09:11.687Z,29.68
2016-08-24T12:10:26.643Z,29.55
2016-08-24T12:11:11.747Z,29.48
2016-08-24T12:12:11.781Z,29.43
2016-08-24T12:13:11.810Z,29.45
2016-08-24T12:14:11.840Z,29.33
2016-08-24T12:15:12.575Z,29.16
2016-08-24T12:16:11.909Z,29.11
2016-08-24T12:17:11.940Z,29.14
2016-08-24T12:18:12.022Z,29.15
2016-08-24T12:20:12.039Z,29.12
2016-08-24T12:21:12.067Z,29.33
2016-08-24T12:22:12.254Z,29.48
2016-08-24T12:23:27.060Z,29.51
2016-08-24T12:24:12.170Z,29.45
2016-08-24T12:25:12.195Z,29.36
2016-08-24T12:26:27.153Z,29.3
2016-08-24T12:27:12.270Z,29.02
2016-08-24T12:28:12.296Z,28.8
2016-08-24T12:29:12.327Z,28.66
2016-08-24T12:30:12.358Z,28.55
2016-08-24T12:31:12.391Z,28.51
2016-08-24T12:32:12.423Z,28.71
2016-08-24T12:33:12.456Z,28.76
2016-08-24T12:34:12.487Z,28.76
2016-08-24T12:35:12.520Z,28.88
2016-08-24T12:36:12.556Z,28.85
2016-08-24T12:37:12.583Z,28.81
2016-08-24T12:38:12.611Z,28.86
2016-08-24T12:39:12.646Z,29
2016-08-24T12:40:12.678Z,28.86
2016-08-24T12:42:27.668Z,28.86
2016-08-24T12:43:12.774Z,28.93
2016-08-24T12:44:13.496Z,29.02
2016-08-24T12:45:13.536Z,29.05
2016-08-24T12:46:12.881Z,29.12
2016-08-24T12:47:12.912Z,29.02
2016-08-24T12:48:12.929Z,29.02
2016-08-24T12:49:12.963Z,28.98
2016-08-24T12:50:12.995Z,28.98
2016-08-24T12:52:13.068Z,28.77
2016-08-24T12:53:13.092Z,28.76
2016-08-24T12:54:13.122Z,28.8
2016-08-24T12:55:28.084Z,29.04
2016-08-24T12:56:13.187Z,29.05
2016-08-24T12:57:28.149Z,29.21
2016-08-24T12:58:13.258Z,29.43
2016-08-24T12:59:13.281Z,29.49
2016-08-24T13:00:13.316Z,29.53
2016-08-24T13:01:13.347Z,29.52
2016-08-24T13:02:13.378Z,29.49
2016-08-24T13:03:13.411Z,29.36
2016-08-24T13:04:13.445Z,29.37
2016-08-24T13:05:13.476Z,29.26
2016-08-24T13:06:13.507Z,29.33
2016-08-24T13:07:13.541Z,29.33
2016-08-24T13:08:13.570Z,29.43
2016-08-24T13:09:13.610Z,29.53
2016-08-24T13:10:13.631Z,29.51
2016-08-24T13:11:13.667Z,29.49
2016-08-24T13:12:28.625Z,29.51
2016-08-24T13:13:13.731Z,29.49
2016-08-24T13:14:13.761Z,29.48
2016-08-24T13:15:13.794Z,29.43
2016-08-24T13:16:13.825Z,29.42
2016-08-24T13:17:13.861Z,29.45
2016-08-24T13:18:13.889Z,29.51
2016-08-24T13:19:13.923Z,29.45
2016-08-24T13:20:13.957Z,29.24
2016-08-24T13:21:13.989Z,29.06
2016-08-24T13:23:14.050Z,28.71
2016-08-24T13:25:14.111Z,29.04
2016-08-24T13:26:29.072Z,29.02
2016-08-24T13:27:14.190Z,29.02
2016-08-24T13:28:29.135Z,28.96
2016-08-24T13:29:29.166Z,29.02
2016-08-24T13:30:14.286Z,29.04
2016-08-24T13:31:14.302Z,29.06
2016-08-24T13:32:14.335Z,29.04
2016-08-24T13:33:14.417Z,28.95
2016-08-24T13:34:14.400Z,28.9